Time;durP1;ratioP1;P1;durP2;ratioP2;P2;SDS_P1;SDS_P2;PMS_P1;PMS_P2;Temp;Humidity;BMP_temperature;BMP_pressure;BME280_temperature;BME280_humidity;BME280_pressure;Samples;Min_cycle;Max_cycle;Signal;HPM_P1;HPM_P2
2024/02/10 00:01:34;;;;;;;5.63;3.33;;;;;;;7.35;100.00;98504.66;6276449;28;20049;-72
2024/02/10 00:04:38;;;;;;;6.82;4.03;;;;;;;7.36;100.00;98494.13;6276594;28;20053;-72
2024/02/10 00:07:40;;;;;;;7.35;3.72;;;;;;;7.39;100.00;98493.03;6276161;28;20056;-72
2024/02/10 00:10:42;;;;;;;7.10;4.80;;;;;;;7.44;100.00;98501.34;6275894;28;20397;-72
2024/02/10 00:13:43;;;;;;;6.45;4.05;;;;;;;7.50;100.00;98505.28;6274910;28;20087;-72
2024/02/10 00:16:44;;;;;;;8.50;3.95;;;;;;;7.57;100.00;98490.78;6268745;28;20052;-73
2024/02/10 00:19:48;;;;;;;9.40;4.47;;;;;;;7.65;100.00;98496.25;6275892;28;20055;-72
2024/02/10 00:22:52;;;;;;;8.50;4.10;;;;;;;7.67;100.00;98496.13;6276012;28;20053;-72
2024/02/10 00:25:54;;;;;;;6.38;3.65;;;;;;;7.71;100.00;98493.16;6266850;28;20365;-72
2024/02/10 00:28:56;;;;;;;7.70;4.13;;;;;;;7.83;100.00;98496.63;6275437;28;20048;-72
2024/02/10 00:31:58;;;;;;;9.40;4.25;;;;;;;7.95;100.00;98493.03;6275959;28;20171;-72
2024/02/10 00:35:00;;;;;;;8.55;4.80;;;;;;;7.98;100.00;98487.56;6275491;28;20053;-72
2024/02/10 00:38:03;;;;;;;9.45;4.57;;;;;;;7.99;100.00;98488.38;6274992;28;20049;-73
2024/02/10 00:41:06;;;;;;;8.48;4.82;;;;;;;8.04;100.00;98486.22;6275303;28;20045;-72
2024/02/10 00:44:08;;;;;;;12.38;5.07;;;;;;;8.08;100.00;98480.66;6275538;28;20053;-72
2024/02/10 00:47:12;;;;;;;8.52;4.25;;;;;;;8.07;100.00;98489.44;6275131;28;20430;-72
2024/02/10 00:50:18;;;;;;;6.78;3.92;;;;;;;8.02;100.00;98488.16;6269552;28;20049;-73
2024/02/10 00:53:21;;;;;;;9.45;4.82;;;;;;;8.07;100.00;98492.06;6266935;28;20041;-73
2024/02/10 00:56:24;;;;;;;6.13;3.67;;;;;;;8.13;100.00;98483.75;6264896;28;20045;-73
2024/02/10 00:59:25;;;;;;;8.27;4.45;;;;;;;8.16;100.00;98481.81;6274940;28;20049;-73
2024/02/10 01:02:27;;;;;;;8.38;4.60;;;;;;;8.17;100.00;98471.22;6274944;28;20044;-73
2024/02/10 01:05:30;;;;;;;10.63;4.53;;;;;;;8.21;100.00;98484.91;6266730;28;20045;-73
2024/02/10 01:08:31;;;;;;;10.68;4.60;;;;;;;8.24;100.00;98489.91;6274704;28;20087;-73
2024/02/10 01:11:33;;;;;;;10.07;4.47;;;;;;;8.23;100.00;98490.84;6275061;28;20067;-73
2024/02/10 01:14:35;;;;;;;8.73;3.88;;;;;;;8.26;100.00;98488.81;6274735;28;20158;-73
2024/02/10 01:17:36;;;;;;;8.60;4.20;;;;;;;8.27;100.00;98490.50;6274678;28;20330;-73
2024/02/10 01:20:39;;;;;;;8.23;4.78;;;;;;;8.25;100.00;98483.69;6275044;28;20056;-73
2024/02/10 01:23:42;;;;;;;8.13;4.18;;;;;;;8.28;100.00;98486.91;6275026;28;20048;-73
2024/02/10 01:26:43;;;;;;;10.75;3.75;;;;;;;8.32;100.00;98485.72;6274179;28;20457;-73
2024/02/10 01:29:46;;;;;;;7.00;3.92;;;;;;;8.29;100.00;98487.75;6266963;28;20045;-73
2024/02/10 01:32:48;;;;;;;7.82;4.45;;;;;;;8.31;100.00;98483.19;6274751;28;20449;-73
2024/02/10 01:35:51;;;;;;;7.68;3.65;;;;;;;8.29;100.00;98490.34;6274664;28;20429;-73
2024/02/10 01:38:52;;;;;;;6.00;3.88;;;;;;;8.28;100.00;98491.31;6274570;28;20049;-73
2024/02/10 01:41:53;;;;;;;10.32;4.32;;;;;;;8.33;100.00;98497.84;6274825;28;20049;-73
2024/02/10 01:44:58;;;;;;;8.05;3.50;;;;;;;8.36;100.00;98492.41;6272172;28;20052;-73
2024/02/10 01:48:01;;;;;;;6.68;3.75;;;;;;;8.34;100.00;98494.25;6268704;28;20071;-73
2024/02/10 01:51:04;;;;;;;6.35;3.35;;;;;;;8.36;100.00;98492.41;6274930;28;20056;-73
2024/02/10 01:54:07;;;;;;;8.75;4.20;;;;;;;8.37;100.00;98493.22;6276954;28;20048;-73
2024/02/10 01:57:09;;;;;;;7.45;4.07;;;;;;;8.33;100.00;98497.84;6279353;28;20045;-73
2024/02/10 02:00:13;;;;;;;12.40;5.43;;;;;;;8.42;100.00;98485.00;6279290;28;20357;-73
2024/02/10 02:03:15;;;;;;;10.20;4.15;;;;;;;8.41;100.00;98485.97;6278953;28;20187;-73
2024/02/10 02:06:18;;;;;;;7.75;4.18;;;;;;;8.40;100.00;98495.56;6279580;28;20052;-73
2024/02/10 02:09:19;;;;;;;8.15;4.30;;;;;;;8.40;100.00;98487.72;6278667;28;20049;-73
2024/02/10 02:12:21;;;;;;;9.55;3.83;;;;;;;8.38;100.00;98493.09;6316288;22;20048;-74
2024/02/10 02:15:22;;;;;;;8.75;3.90;;;;;;;8.35;100.00;98495.91;6303601;28;20049;-74
2024/02/10 02:18:23;;;;;;;6.53;3.70;;;;;;;8.32;100.00;98497.97;6303583;28;20052;-74
2024/02/10 02:21:27;;;;;;;7.75;3.90;;;;;;;8.30;100.00;98502.47;6303770;28;20059;-74
2024/02/10 02:24:31;;;;;;;7.10;3.92;;;;;;;8.27;100.00;98505.34;6303538;28;20545;-74
2024/02/10 02:27:32;;;;;;;7.80;4.32;;;;;;;8.21;100.00;98508.44;6302915;28;20048;-76
2024/02/10 02:30:35;;;;;;;6.90;4.13;;;;;;;8.24;100.00;98511.66;6303794;28;20052;-77
2024/02/10 02:33:38;;;;;;;12.00;4.75;;;;;;;8.30;100.00;98513.78;6303262;28;20420;-76
2024/02/10 02:36:41;;;;;;;19.15;5.13;;;;;;;8.43;100.00;98516.28;6303485;28;20139;-76
2024/02/10 02:39:44;;;;;;;9.57;4.60;;;;;;;8.52;100.00;98517.31;6302826;28;20356;-76
2024/02/10 02:42:46;;;;;;;10.13;4.93;;;;;;;8.71;100.00;98527.97;6303777;28;20137;-76
2024/02/10 02:45:48;;;;;;;13.93;5.15;;;;;;;8.75;100.00;98518.91;6303099;28;20554;-77
2024/02/10 02:48:50;;;;;;;14.07;4.60;;;;;;;8.75;100.00;98518.91;6302653;28;20391;-75
2024/02/10 02:51:51;;;;;;;7.38;4.22;;;;;;;8.74;100.00;98516.41;6279428;28;20599;-76
2024/02/10 02:54:54;;;;;;;10.38;4.88;;;;;;;8.84;100.00;98526.00;6277614;28;20056;-76
2024/02/10 02:57:56;;;;;;;13.25;5.40;;;;;;;9.00;100.00;98527.41;6277749;28;20155;-76
2024/02/10 03:00:58;;;;;;;13.70;6.13;;;;;;;8.99;100.00;98521.28;6278052;28;20045;-76
2024/02/10 03:04:00;;;;;;;13.70;4.95;;;;;;;8.88;100.00;98522.19;6277193;28;20053;-78
2024/02/10 03:07:01;;;;;;;8.43;4.63;;;;;;;8.82;100.00;98519.25;6276824;28;20349;-79
2024/02/10 03:10:05;;;;;;;9.55;4.15;;;;;;;8.79;100.00;98524.72;6278051;28;20463;-78
2024/02/10 03:13:06;;;;;;;8.63;4.45;;;;;;;8.73;100.00;98522.63;6277497;28;20048;-78
2024/02/10 03:16:08;;;;;;;8.30;4.82;;;;;;;8.75;100.00;98515.47;6277697;28;20437;-79
2024/02/10 03:19:09;;;;;;;6.75;4.07;;;;;;;8.74;100.00;98519.88;6277277;28;20044;-79
2024/02/10 03:22:12;;;;;;;4.78;3.47;;;;;;;8.70;100.00;98520.25;6273999;28;20048;-79
2024/02/10 03:25:15;;;;;;;4.22;3.20;;;;;;;8.66;100.00;98524.06;6255369;28;20049;-78
2024/02/10 03:28:17;;;;;;;4.75;2.80;;;;;;;8.60;100.00;98520.16;6252143;28;20061;-78
2024/02/10 03:31:18;;;;;;;3.65;2.58;;;;;;;8.58;100.00;98522.91;6252678;28;20112;-78
2024/02/10 03:34:20;;;;;;;3.53;2.72;;;;;;;8.58;100.00;98519.44;6255062;28;20148;-79
2024/02/10 03:37:21;;;;;;;4.00;2.70;;;;;;;8.53;100.00;98514.56;6259677;28;20053;-79
2024/02/10 03:40:24;;;;;;;4.72;3.20;;;;;;;8.49;100.00;98514.94;6275997;28;20057;-78
2024/02/10 03:43:27;;;;;;;4.90;3.17;;;;;;;8.50;100.00;98509.59;6276941;28;20073;-79
2024/02/10 03:46:30;;;;;;;5.45;3.47;;;;;;;8.49;100.00;98520.19;6266462;28;20045;-78
2024/02/10 03:49:31;;;;;;;5.57;3.28;;;;;;;8.37;100.00;98512.38;6275248;28;20045;-78
2024/02/10 03:52:34;;;;;;;7.95;2.97;;;;;;;8.38;100.00;98516.66;6273888;28;20083;-78
2024/02/10 03:55:38;;;;;;;6.38;3.50;;;;;;;8.38;100.00;98514.03;6259754;28;20054;-78
2024/02/10 03:58:41;;;;;;;3.90;3.00;;;;;;;8.38;100.00;98511.41;6252297;28;20049;-78
2024/02/10 04:01:43;;;;;;;4.03;2.97;;;;;;;8.40;100.00;98513.91;6270274;28;20363;-78
2024/02/10 04:04:44;;;;;;;4.97;2.95;;;;;;;8.42;100.00;98509.38;6276484;28;20056;-78
2024/02/10 04:07:49;;;;;;;4.38;3.03;;;;;;;8.43;100.00;98508.44;6272011;28;20369;-78
2024/02/10 04:10:52;;;;;;;4.85;3.35;;;;;;;8.42;100.00;98508.56;6251658;28;20428;-78
2024/02/10 04:13:58;;;;;;;3.65;2.88;;;;;;;8.38;100.00;98516.66;6272098;28;20425;-78
2024/02/10 04:17:01;;;;;;;4.57;2.17;;;;;;;8.36;100.00;98504.63;6275957;28;20061;-78
2024/02/10 04:20:03;;;;;;;3.78;2.47;;;;;;;8.30;100.00;98511.16;6276179;28;20045;-78
2024/02/10 04:23:09;;;;;;;3.65;2.75;;;;;;;8.31;100.00;98511.97;6268282;28;20334;-78
2024/02/10 04:26:12;;;;;;;3.83;2.67;;;;;;;8.29;100.00;98509.50;6251721;28;20053;-78
2024/02/10 04:29:16;;;;;;;3.85;2.78;;;;;;;8.22;100.00;98497.88;6251724;28;20513;-77
2024/02/10 04:32:17;;;;;;;3.25;2.30;;;;;;;8.16;100.00;98510.59;6251520;28;20049;-78
2024/02/10 04:35:19;;;;;;;4.00;2.90;;;;;;;8.14;100.00;98508.94;6251193;28;20046;-78
2024/02/10 04:38:22;;;;;;;3.90;2.60;;;;;;;8.11;100.00;98513.59;6250513;28;20469;-78
2024/02/10 04:41:24;;;;;;;5.40;3.28;;;;;;;8.12;100.00;98523.09;6264247;28;20094;-78
2024/02/10 04:44:26;;;;;;;3.95;2.83;;;;;;;8.10;100.00;98510.13;6263119;28;20053;-77
2024/02/10 04:47:27;;;;;;;4.85;3.00;;;;;;;8.07;100.00;98517.38;6260173;28;20052;-78
2024/02/10 04:50:29;;;;;;;3.80;2.55;;;;;;;8.06;100.00;98513.13;6262464;28;20049;-78
2024/02/10 04:53:30;;;;;;;4.80;3.03;;;;;;;8.03;100.00;98508.13;6265084;28;20128;-78
2024/02/10 04:56:33;;;;;;;5.43;3.05;;;;;;;8.02;100.00;98514.31;6265358;28;20051;-78
2024/02/10 04:59:35;;;;;;;5.68;3.50;;;;;;;7.98;100.00;98512.88;6261348;28;20053;-78
2024/02/10 05:02:37;;;;;;;3.72;2.60;;;;;;;7.96;100.00;98509.56;6262135;28;20447;-78
2024/02/10 05:05:39;;;;;;;4.43;2.75;;;;;;;7.96;100.00;98510.41;6273858;28;20045;-77
2024/02/10 05:08:40;;;;;;;5.85;2.60;;;;;;;7.95;100.00;98516.59;6275046;28;20052;-77
2024/02/10 05:11:43;;;;;;;4.53;2.78;;;;;;;7.94;100.00;98508.84;6275175;28;20045;-77
2024/02/10 05:14:44;;;;;;;4.80;3.20;;;;;;;7.87;100.00;98498.88;6275191;28;20052;-78
2024/02/10 05:17:49;;;;;;;4.32;3.05;;;;;;;7.92;100.00;98508.16;6274646;28;20067;-77
2024/02/10 05:20:52;;;;;;;5.78;3.20;;;;;;;7.93;100.00;98502.78;6274911;28;20060;-77
2024/02/10 05:23:53;;;;;;;5.90;3.25;;;;;;;7.95;100.00;98505.25;6259038;28;20049;-77
2024/02/10 05:26:56;;;;;;;5.55;3.55;;;;;;;7.94;100.00;98503.59;6254255;28;20049;-77
2024/02/10 05:29:57;;;;;;;5.53;3.15;;;;;;;7.97;100.00;98504.19;6265324;28;20060;-77
2024/02/10 05:33:01;;;;;;;7.57;4.00;;;;;;;7.98;100.00;98507.66;6276526;28;20049;-77
2024/02/10 05:36:03;;;;;;;5.90;3.75;;;;;;;7.98;100.00;98508.47;6269080;28;20448;-77
2024/02/10 05:39:08;;;;;;;4.53;3.22;;;;;;;7.96;100.00;98502.56;6262329;28;20060;-77
2024/02/10 05:42:11;;;;;;;8.45;4.68;;;;;;;7.98;100.00;98500.63;6266016;28;20099;-78
2024/02/10 05:45:17;;;;;;;9.95;5.35;;;;;;;8.05;100.00;98506.22;6268474;28;20048;-78
2024/02/10 05:48:20;;;;;;;8.65;4.45;;;;;;;8.05;100.00;98496.59;6266539;28;20045;-78
2024/02/10 05:51:23;;;;;;;11.05;5.63;;;;;;;8.03;100.00;98498.47;6266257;28;20052;-77
2024/02/10 05:54:27;;;;;;;6.78;4.55;;;;;;;8.01;100.00;98500.41;6267254;28;20138;-77
2024/02/10 05:57:29;;;;;;;10.07;5.53;;;;;;;8.04;100.00;98502.78;6264801;28;20196;-76
2024/02/10 06:00:31;;;;;;;8.15;4.78;;;;;;;8.04;100.00;98505.41;6274467;28;20053;-77
2024/02/10 06:03:33;;;;;;;12.88;5.85;;;;;;;8.07;100.00;98499.06;6279375;28;20049;-76
2024/02/10 06:06:35;;;;;;;8.48;4.78;;;;;;;8.11;100.00;98506.56;6279426;28;20052;-76
2024/02/10 06:09:37;;;;;;;9.13;5.18;;;;;;;8.10;100.00;98510.13;6278744;28;20365;-76
2024/02/10 06:12:43;;;;;;;9.73;5.18;;;;;;;8.16;100.00;98513.22;6278555;28;20074;-76
2024/02/10 06:15:46;;;;;;;10.15;4.75;;;;;;;8.18;100.00;98509.53;6278665;28;20044;-76
2024/02/10 06:18:49;;;;;;;9.90;5.63;;;;;;;8.21;100.00;98517.13;6277534;28;20459;-76
2024/02/10 06:21:51;;;;;;;11.20;6.43;;;;;;;8.25;100.00;98522.94;6278889;28;20368;-76
2024/02/10 06:24:56;;;;;;;14.38;6.28;;;;;;;8.30;100.00;98521.63;6278563;28;20146;-78
2024/02/10 06:28:00;;;;;;;13.23;6.43;;;;;;;8.29;100.00;98519.97;6278493;28;20127;-76
2024/02/10 06:31:01;;;;;;;12.75;6.55;;;;;;;8.32;100.00;98522.34;6278743;28;20349;-76
2024/02/10 06:34:03;;;;;;;10.73;6.05;;;;;;;8.36;100.00;98523.81;6278564;28;20417;-75
2024/02/10 06:37:06;;;;;;;11.18;5.53;;;;;;;8.37;100.00;98529.88;6278273;28;20053;-75
2024/02/10 06:40:13;;;;;;;11.68;5.93;;;;;;;8.39;100.00;98533.19;6278509;28;20190;-75
2024/02/10 06:43:17;;;;;;;13.25;6.35;;;;;;;8.42;100.00;98532.13;6278393;28;20064;-75
2024/02/10 06:46:18;;;;;;;10.82;5.40;;;;;;;8.40;100.00;98532.22;6278749;28;20049;-76
2024/02/10 06:49:20;;;;;;;11.10;5.10;;;;;;;8.38;100.00;98544.59;6277984;28;20056;-76
2024/02/10 06:52:22;;;;;;;8.82;5.13;;;;;;;8.40;100.00;98537.44;6278122;28;20357;-76
2024/02/10 06:55:26;;;;;;;9.55;5.10;;;;;;;8.42;100.00;98539.97;6278154;28;20052;-75
2024/02/10 06:58:29;;;;;;;8.20;4.40;;;;;;;8.45;100.00;98542.31;6277538;28;20456;-77
2024/02/10 07:01:32;;;;;;;11.55;5.60;;;;;;;8.49;100.00;98552.41;6278247;28;20060;-77
2024/02/10 07:04:37;;;;;;;11.25;6.05;;;;;;;8.51;100.00;98565.41;6277847;28;20044;-77
2024/02/10 07:07:41;;;;;;;10.88;5.20;;;;;;;8.50;100.00;98564.56;6278035;28;20057;-75
2024/02/10 07:10:45;;;;;;;9.65;5.05;;;;;;;8.47;100.00;98569.22;6277714;28;20052;-75
2024/02/10 07:13:48;;;;;;;9.10;5.70;;;;;;;8.35;100.00;98573.59;6277608;28;20057;-75
2024/02/10 07:16:51;;;;;;;8.05;4.95;;;;;;;8.37;100.00;98569.13;6277712;28;20445;-75
2024/02/10 07:19:53;;;;;;;8.48;4.60;;;;;;;8.35;100.00;98571.81;6277756;28;20510;-76
2024/02/10 07:22:56;;;;;;;7.07;4.50;;;;;;;8.35;100.00;98577.03;6276361;28;20056;-76
2024/02/10 07:25:58;;;;;;;8.45;4.70;;;;;;;8.39;100.00;98583.72;6264506;28;20057;-76
2024/02/10 07:29:03;;;;;;;7.95;4.88;;;;;;;8.40;100.00;98584.56;6263942;28;20334;-76
2024/02/10 07:32:10;;;;;;;8.23;4.88;;;;;;;8.41;100.00;98588.88;6265196;28;20106;-76
2024/02/10 07:35:12;;;;;;;17.20;4.47;;;;;;;8.41;100.00;98588.03;6263286;28;20045;-76
2024/02/10 07:38:14;;;;;;;7.38;4.25;;;;;;;8.46;100.00;98591.13;6264461;28;20045;-76
2024/02/10 07:41:15;;;;;;;8.52;4.95;;;;;;;8.46;100.00;98596.34;6268482;28;20053;-76
2024/02/10 07:44:18;;;;;;;8.68;4.90;;;;;;;8.51;100.00;98602.06;6272082;28;20045;-76
2024/02/10 07:47:20;;;;;;;7.20;4.43;;;;;;;8.55;100.00;98604.31;6276849;28;20131;-76
2024/02/10 07:50:21;;;;;;;8.20;4.75;;;;;;;8.63;100.00;98603.72;6276426;28;20087;-76
2024/02/10 07:53:23;;;;;;;8.38;4.55;;;;;;;8.62;100.00;98617.72;6276634;28;20055;-76
2024/02/10 07:56:24;;;;;;;8.05;4.32;;;;;;;8.67;100.00;98623.44;6276805;28;20049;-76
2024/02/10 07:59:30;;;;;;;7.88;4.55;;;;;;;8.69;100.00;98633.81;6276609;28;20056;-76
2024/02/10 08:02:31;;;;;;;12.43;5.38;;;;;;;8.76;100.00;98640.19;6276625;28;20056;-76
2024/02/10 08:05:33;;;;;;;10.52;5.22;;;;;;;8.77;100.00;98645.34;6276401;28;20353;-76
2024/02/10 08:08:34;;;;;;;9.30;4.90;;;;;;;8.80;100.00;98655.53;6276209;28;20060;-76
2024/02/10 08:11:39;;;;;;;11.57;5.53;;;;;;;8.78;100.00;98652.22;6303811;22;20040;-72
2024/02/10 08:14:42;;;;;;;8.80;4.85;;;;;;;8.80;100.00;98652.09;6300346;28;20044;-72
2024/02/10 08:17:43;;;;;;;10.88;6.00;;;;;;;8.80;100.00;98655.53;6300451;28;20374;-72
2024/02/10 08:20:45;;;;;;;9.27;4.43;;;;;;;8.83;100.00;98665.78;6301340;28;20501;-75
2024/02/10 08:23:52;;;;;;;8.93;5.70;;;;;;;8.83;100.00;98657.94;6300421;28;20052;-73
2024/02/10 08:26:53;;;;;;;7.90;4.38;;;;;;;8.88;100.00;98668.88;6294218;28;20056;-73
2024/02/10 08:29:57;;;;;;;9.38;4.68;;;;;;;8.88;100.00;98660.19;6300926;28;20048;-73
2024/02/10 08:33:00;;;;;;;8.18;4.72;;;;;;;8.88;100.00;98657.56;6300769;28;20178;-74
2024/02/10 08:36:01;;;;;;;8.10;4.78;;;;;;;8.95;100.00;98663.13;6300247;28;20048;-74
2024/02/10 08:39:03;;;;;;;9.27;5.93;;;;;;;9.03;100.00;98666.78;6300142;28;20070;-74
2024/02/10 08:42:07;;;;;;;8.85;5.20;;;;;;;9.06;100.00;98666.56;6300278;28;20352;-71
2024/02/10 08:45:14;;;;;;;9.05;4.78;;;;;;;9.08;100.00;98671.66;6300360;28;20389;-74
2024/02/10 08:48:16;;;;;;;13.55;6.45;;;;;;;9.13;100.00;98666.91;6300541;28;20048;-73
2024/02/10 08:51:18;;;;;;;8.23;5.10;;;;;;;9.11;100.00;98668.81;6300164;28;20353;-74
2024/02/10 08:54:19;;;;;;;9.90;5.25;;;;;;;9.17;100.00;98660.44;6299953;28;20048;-74
2024/02/10 08:57:25;;;;;;;11.32;6.40;;;;;;;9.18;100.00;98680.47;6299958;28;20052;-73
2024/02/10 09:00:27;;;;;;;11.82;5.30;;;;;;;9.24;100.00;98679.16;6300586;28;20087;-74
2024/02/10 09:03:31;;;;;;;8.90;4.45;;;;;;;9.31;100.00;98675.03;6299955;28;20049;-73
2024/02/10 09:06:32;;;;;;;8.88;4.63;;;;;;;9.40;100.00;98674.28;6300390;28;20059;-73
2024/02/10 09:09:34;;;;;;;8.77;4.20;;;;;;;9.45;100.00;98684.41;6299609;28;20048;-73
2024/02/10 09:12:35;;;;;;;9.30;4.95;;;;;;;9.48;100.00;98692.03;6292861;28;20164;-74
2024/02/10 09:15:38;;;;;;;10.40;4.85;;;;;;;9.57;100.00;98694.72;6297606;28;20044;-74
2024/02/10 09:18:41;;;;;;;10.55;4.57;;;;;;;9.66;100.00;98695.75;6299343;28;20048;-73
2024/02/10 09:21:43;;;;;;;10.00;4.97;;;;;;;9.75;100.00;98702.03;6299989;28;20056;-75
2024/02/10 09:24:44;;;;;;;8.13;4.38;;;;;;;9.78;100.00;98697.38;6293361;28;20036;-75
2024/02/10 09:27:47;;;;;;;8.50;4.40;;;;;;;9.82;100.00;98700.59;6298247;28;20059;-75
2024/02/10 09:30:49;;;;;;;10.63;4.82;;;;;;;9.83;100.00;98699.63;6300042;28;20044;-75
2024/02/10 09:33:51;;;;;;;7.35;4.55;;;;;;;9.84;100.00;98696.03;6299681;28;20049;-75
2024/02/10 09:36:52;;;;;;;9.13;4.72;;;;;;;9.90;100.00;98703.38;6299919;28;20079;-75
2024/02/10 09:39:53;;;;;;;7.80;4.10;;;;;;;9.96;100.00;98702.91;6293439;28;20360;-75
2024/02/10 09:43:02;;;;;;;4.50;3.22;;;;;;;10.03;100.00;98700.56;6274823;28;20045;-75
2024/02/10 09:46:08;;;;;;;6.60;3.63;;;;;;;10.11;100.00;98698.16;6274764;28;20360;-75
2024/02/10 09:49:12;;;;;;;5.95;3.05;;;;;;;10.18;100.00;98701.94;6274386;28;20136;-75
2024/02/10 09:52:14;;;;;;;4.22;2.90;;;;;;;10.25;100.00;98699.63;6275009;28;20045;-75
2024/02/10 09:55:16;;;;;;;4.43;3.10;;;;;;;10.33;100.00;98695.41;6274490;28;20056;-76
2024/02/10 09:58:18;;;;;;;5.60;3.10;;;;;;;10.40;100.00;98693.94;6274638;28;20056;-77
2024/02/10 10:01:20;;;;;;;6.18;3.33;;;;;;;10.49;100.00;98701.94;6274806;28;20053;-74
2024/02/10 10:04:22;;;;;;;6.90;2.92;;;;;;;10.58;100.00;98698.53;6274326;28;20363;-74
2024/02/10 10:07:24;;;;;;;4.20;2.80;;;;;;;10.69;100.00;98692.38;6274273;28;20049;-74
2024/02/10 10:10:26;;;;;;;8.00;3.40;;;;;;;10.64;100.00;98693.59;6274596;28;20352;-72
2024/02/10 10:13:27;;;;;;;4.25;2.92;;;;;;;10.71;100.00;98693.06;6274214;28;20369;-75
2024/02/10 10:16:30;;;;;;;4.82;3.15;;;;;;;10.80;100.00;98694.88;6279123;28;20045;-74
2024/02/10 10:19:31;;;;;;;8.07;2.92;;;;;;;10.83;100.00;98687.56;6278936;28;20045;-73
2024/02/10 10:22:34;;;;;;;4.13;2.75;;;;;;;10.91;100.00;98690.38;6279026;28;20049;-73
2024/02/10 10:25:36;;;;;;;6.10;3.05;;;;;;;10.83;100.00;98698.09;6278991;28;20052;-75
2024/02/10 10:28:37;;;;;;;3.13;2.45;;;;;;;10.68;100.00;98696.81;6278503;28;20071;-72
2024/02/10 10:31:44;;;;;;;4.35;2.67;;;;;;;10.69;100.00;98701.09;6279057;28;20052;-74
2024/02/10 10:34:47;;;;;;;5.10;2.88;;;;;;;10.74;100.00;98703.31;6290458;28;20598;-75
2024/02/10 10:37:51;;;;;;;4.68;2.97;;;;;;;10.86;100.00;98707.50;6283913;28;20063;-76
2024/02/10 10:40:52;;;;;;;4.78;2.70;;;;;;;10.84;100.00;98712.88;6291118;28;20068;-76
2024/02/10 10:43:55;;;;;;;5.85;2.70;;;;;;;10.86;100.00;98708.34;6278148;28;20049;-76
2024/02/10 10:46:59;;;;;;;3.53;2.33;;;;;;;10.92;100.00;98705.16;6294368;28;20049;-76
2024/02/10 10:50:00;;;;;;;4.50;2.70;;;;;;;11.01;100.00;98700.91;6303262;28;20057;-74
2024/02/10 10:53:06;;;;;;;4.53;2.90;;;;;;;11.08;100.00;98706.44;6298601;28;20052;-74
2024/02/10 10:56:10;;;;;;;5.40;2.85;;;;;;;11.22;100.00;98699.94;6297407;28;20040;-76
2024/02/10 10:59:13;;;;;;;9.98;3.42;;;;;;;11.20;100.00;98696.66;6300524;28;20048;-74
2024/02/10 11:02:19;;;;;;;6.22;3.00;;;;;;;11.22;100.00;98692.94;6302200;28;20448;-76
2024/02/10 11:05:23;;;;;;;4.38;2.72;;;;;;;11.19;100.00;98690.56;6302494;28;20071;-75
2024/02/10 11:08:26;;;;;;;4.28;2.70;;;;;;;11.35;100.00;98687.38;6301198;28;20048;-74
2024/02/10 11:11:35;;;;;;;7.97;2.35;;;;;;;11.51;100.00;98686.84;6301423;28;20047;-74
2024/02/10 11:14:37;;;;;;;3.33;1.92;;;;;;;11.54;100.00;98682.16;6302156;28;20416;-74
2024/02/10 11:17:39;;;;;;;4.22;2.22;;;;;;;11.59;100.00;98679.09;6302049;28;20461;-76
2024/02/10 11:20:41;;;;;;;4.05;2.25;;;;;;;11.64;100.00;98685.59;6302639;28;20055;-76
2024/02/10 11:23:42;;;;;;;4.00;2.40;;;;;;;11.69;100.00;98675.47;6302232;28;20366;-76
2024/02/10 11:26:45;;;;;;;4.00;2.10;;;;;;;11.78;100.00;98678.25;6301340;28;20045;-76
2024/02/10 11:29:47;;;;;;;3.40;1.95;;;;;;;11.77;100.00;98672.16;6301302;28;20044;-75
2024/02/10 11:32:50;;;;;;;7.85;2.55;;;;;;;11.75;100.00;98675.88;6302204;28;20044;-75
2024/02/10 11:35:52;;;;;;;4.82;2.10;;;;;;;11.78;100.00;98671.19;6301677;28;20040;-75
2024/02/10 11:38:54;;;;;;;4.32;2.30;;;;;;;11.89;100.00;98671.03;6301796;28;20182;-75
2024/02/10 11:41:57;;;;;;;4.90;2.40;;;;;;;11.93;100.00;98661.06;6302051;28;20048;-75
2024/02/10 11:45:00;;;;;;;3.17;2.22;;;;;;;12.16;100.00;98662.41;6301838;28;20055;-75
2024/02/10 11:48:03;;;;;;;8.73;2.65;;;;;;;12.28;100.00;98655.16;6301183;28;20108;-74
2024/02/10 11:51:04;;;;;;;5.85;2.28;;;;;;;12.29;100.00;98654.19;6301528;28;20057;-75
2024/02/10 11:54:06;;;;;;;3.13;1.95;;;;;;;12.31;100.00;98654.88;6299739;28;20154;-76
2024/02/10 11:57:08;;;;;;;3.55;1.70;;;;;;;12.33;100.00;98654.72;6300789;28;20052;-75
2024/02/10 12:00:12;;;;;;;2.88;2.05;;;;;;;12.27;100.00;98656.16;6300850;28;20048;-75
2024/02/10 12:03:19;;;;;;;4.03;1.95;;;;;;;12.40;100.00;98647.91;6301124;28;20044;-75
2024/02/10 12:06:21;;;;;;;2.78;1.83;;;;;;;12.52;100.00;98648.53;6301293;28;20047;-75
2024/02/10 12:09:24;;;;;;;2.67;1.67;;;;;;;12.49;100.00;98654.94;6300480;28;20563;-74
2024/02/10 12:12:25;;;;;;;1.33;1.20;;;;;;;12.60;100.00;98656.56;6300910;28;20048;-75
2024/02/10 12:15:27;;;;;;;2.03;1.38;;;;;;;12.65;100.00;98652.50;6299638;28;20123;-74
2024/02/10 12:18:32;;;;;;;3.17;1.63;;;;;;;12.82;100.00;98653.53;6300732;28;20133;-74
2024/02/10 12:21:33;;;;;;;4.90;1.85;;;;;;;13.02;100.00;98646.31;6298809;28;20581;-74
2024/02/10 12:24:35;;;;;;;3.13;1.48;;;;;;;12.93;100.00;98641.94;6298272;28;20051;-74
2024/02/10 12:27:36;;;;;;;3.63;2.15;;;;;;;12.87;100.00;98643.38;6299229;28;20044;-74
2024/02/10 12:30:38;;;;;;;2.30;1.70;;;;;;;12.84;100.00;98651.56;6295663;28;20052;-74
2024/02/10 12:33:42;;;;;;;2.92;1.58;;;;;;;13.07;100.00;98636.16;6300818;28;20044;-74
2024/02/10 12:36:44;;;;;;;4.07;1.70;;;;;;;13.12;100.00;98641.81;6298826;28;20088;-73
2024/02/10 12:39:45;;;;;;;3.78;2.00;;;;;;;13.03;100.00;98631.31;6298727;28;20425;-73
2024/02/10 12:42:47;;;;;;;3.03;1.95;;;;;;;13.02;100.00;98634.94;6296370;28;20455;-74
2024/02/10 12:45:48;;;;;;;4.25;2.10;;;;;;;13.08;100.00;98634.34;6293172;28;20040;-73
2024/02/10 12:48:51;;;;;;;2.92;1.65;;;;;;;13.05;100.00;98635.47;6299709;28;20045;-73
2024/02/10 12:51:55;;;;;;;3.20;1.95;;;;;;;12.85;100.00;98637.44;6298820;28;20433;-74
2024/02/10 12:54:56;;;;;;;2.35;1.67;;;;;;;12.98;100.00;98634.41;6297794;28;20048;-73
2024/02/10 12:57:58;;;;;;;3.17;2.22;;;;;;;12.99;100.00;98633.47;6299376;28;20051;-75
2024/02/10 13:01:00;;;;;;;2.58;1.80;;;;;;;13.02;100.00;98627.03;6299034;28;20049;-73
2024/02/10 13:04:03;;;;;;;4.68;2.35;;;;;;;12.98;100.00;98631.78;6298965;28;20364;-74
2024/02/10 13:07:05;;;;;;;3.90;2.25;;;;;;;12.99;100.00;98622.06;6299344;28;20151;-74
2024/02/10 13:10:18;;;;;;;4.07;1.75;;;;;;;12.93;100.00;98626.13;6299697;28;20048;-75
2024/02/10 13:13:20;;;;;;;2.22;1.67;;;;;;;12.95;100.00;98619.72;6299473;28;20044;-74
2024/02/10 13:16:21;;;;;;;3.53;2.03;;;;;;;12.99;100.00;98608.88;6299581;28;20041;-74
2024/02/10 13:19:24;;;;;;;2.53;1.40;;;;;;;12.91;100.00;98613.09;6299319;28;20083;-74
2024/02/10 13:22:25;;;;;;;2.85;1.60;;;;;;;12.89;100.00;98611.56;6299545;28;20055;-73
2024/02/10 13:25:26;;;;;;;1.73;1.42;;;;;;;12.84;100.00;98614.66;6299507;28;20048;-74
2024/02/10 13:28:31;;;;;;;2.60;1.27;;;;;;;12.81;100.00;98611.47;6299172;28;20052;-74
2024/02/10 13:31:34;;;;;;;2.05;1.55;;;;;;;12.81;100.00;98614.97;6299813;28;20048;-74
2024/02/10 13:34:45;;;;;;;3.53;1.48;;;;;;;12.89;100.00;98620.31;6299315;28;20447;-74
2024/02/10 14:01:11;;;;;;;3.17;1.88;;;;;;;13.21;100.00;98621.63;6304341;28;20049;-73
2024/02/10 14:04:15;;;;;;;2.38;1.55;;;;;;;13.26;100.00;98618.56;6304136;28;20143;-73
2024/02/10 14:07:59;;;;;;;2.92;1.70;;;;;;;13.07;100.00;98622.13;6302386;28;20041;-72
2024/02/10 14:10:46;;;;;;;3.90;1.98;;;;;;;12.89;100.00;98622.13;6300585;28;20052;-74
2024/02/10 14:13:51;;;;;;;4.75;1.90;;;;;;;12.76;100.00;98619.00;6313964;22;20063;-77
2024/02/10 14:17:09;;;;;;;2.33;1.65;;;;;;;12.72;100.00;98625.56;6295416;28;20127;-76
2024/02/10 14:20:18;;;;;;;3.13;1.65;;;;;;;12.80;100.00;98623.00;6294502;28;20060;-77
2024/02/10 14:23:24;;;;;;;2.85;1.80;;;;;;;12.75;100.00;98625.25;6288914;28;20163;-76
2024/02/10 14:26:36;;;;;;;2.92;1.73;;;;;;;12.69;100.00;98639.88;6281713;28;20041;-77
2024/02/10 14:29:38;;;;;;;2.15;1.35;;;;;;;12.65;100.00;98636.69;6271704;28;20417;-77
2024/02/10 14:32:41;;;;;;;2.35;1.48;;;;;;;12.67;100.00;98639.16;6271698;28;20048;-76
2024/02/10 14:35:52;;;;;;;1.92;1.38;;;;;;;12.68;100.00;98639.03;6278279;28;20053;-77
2024/02/10 14:39:06;;;;;;;1.50;1.13;;;;;;;12.70;100.00;98641.53;6277136;28;20049;-77